sensor_id;sensor_type;location;lat;lon;timestamp;P1;durP1;ratioP1;P2;durP2;ratioP2
76284;SDS011;71676;50.998;7.098;2024-03-17T00:00:19;9.07;;;3.35;;
76284;SDS011;71676;50.998;7.098;2024-03-17T00:02:45;8.35;;;3.47;;
76284;SDS011;71676;50.998;7.098;2024-03-17T00:05:13;8.10;;;3.45;;
76284;SDS011;71676;50.998;7.098;2024-03-17T00:07:39;7.38;;;3.15;;
76284;SDS011;71676;50.998;7.098;2024-03-17T00:10:06;8.43;;;3.40;;
76284;SDS011;71676;50.998;7.098;2024-03-17T00:12:33;6.63;;;3.22;;
76284;SDS011;71676;50.998;7.098;2024-03-17T00:15:00;9.25;;;3.38;;
76284;SDS011;71676;50.998;7.098;2024-03-17T00:17:25;7.90;;;3.78;;
76284;SDS011;71676;50.998;7.098;2024-03-17T00:19:52;9.70;;;4.35;;
76284;SDS011;71676;50.998;7.098;2024-03-17T00:22:20;11.27;;;3.63;;
76284;SDS011;71676;50.998;7.098;2024-03-17T00:24:46;8.65;;;3.40;;
76284;SDS011;71676;50.998;7.098;2024-03-17T00:27:12;7.30;;;3.33;;
76284;SDS011;71676;50.998;7.098;2024-03-17T00:29:39;6.38;;;3.22;;
76284;SDS011;71676;50.998;7.098;2024-03-17T00:32:05;7.40;;;3.42;;
76284;SDS011;71676;50.998;7.098;2024-03-17T00:34:32;7.65;;;3.45;;
76284;SDS011;71676;50.998;7.098;2024-03-17T00:36:58;7.38;;;3.30;;
76284;SDS011;71676;50.998;7.098;2024-03-17T00:39:26;8.73;;;3.63;;
76284;SDS011;71676;50.998;7.098;2024-03-17T00:41:52;8.75;;;3.63;;
76284;SDS011;71676;50.998;7.098;2024-03-17T00:44:19;9.80;;;3.30;;
76284;SDS011;71676;50.998;7.098;2024-03-17T00:46:45;7.10;;;3.63;;
76284;SDS011;71676;50.998;7.098;2024-03-17T00:49:12;7.50;;;3.58;;
76284;SDS011;71676;50.998;7.098;2024-03-17T00:54:04;9.50;;;3.30;;
76284;SDS011;71676;50.998;7.098;2024-03-17T00:56:31;6.43;;;3.58;;
76284;SDS011;71676;50.998;7.098;2024-03-17T00:58:58;7.82;;;3.50;;
76284;SDS011;71676;50.998;7.098;2024-03-17T01:01:23;9.50;;;4.38;;
76284;SDS011;71676;50.998;7.098;2024-03-17T01:03:51;9.13;;;3.85;;
76284;SDS011;71676;50.998;7.098;2024-03-17T01:06:17;8.18;;;4.20;;
76284;SDS011;71676;50.998;7.098;2024-03-17T01:08:44;10.70;;;4.07;;
76284;SDS011;71676;50.998;7.098;2024-03-17T01:11:13;8.52;;;3.97;;
76284;SDS011;71676;50.998;7.098;2024-03-17T01:13:43;7.80;;;3.90;;
76284;SDS011;71676;50.998;7.098;2024-03-17T01:16:08;9.25;;;4.38;;
76284;SDS011;71676;50.998;7.098;2024-03-17T01:18:35;7.63;;;4.15;;
76284;SDS011;71676;50.998;7.098;2024-03-17T01:21:02;9.95;;;3.80;;
76284;SDS011;71676;50.998;7.098;2024-03-17T01:23:29;9.13;;;3.97;;
76284;SDS011;71676;50.998;7.098;2024-03-17T01:25:54;10.75;;;4.03;;
76284;SDS011;71676;50.998;7.098;2024-03-17T01:28:21;9.32;;;4.07;;
76284;SDS011;71676;50.998;7.098;2024-03-17T01:30:48;10.13;;;4.35;;
76284;SDS011;71676;50.998;7.098;2024-03-17T01:33:15;10.80;;;4.82;;
76284;SDS011;71676;50.998;7.098;2024-03-17T01:35:42;8.80;;;4.43;;
76284;SDS011;71676;50.998;7.098;2024-03-17T01:38:09;8.73;;;4.32;;
76284;SDS011;71676;50.998;7.098;2024-03-17T01:40:35;9.93;;;4.32;;
76284;SDS011;71676;50.998;7.098;2024-03-17T01:43:02;10.10;;;4.05;;
76284;SDS011;71676;50.998;7.098;2024-03-17T01:45:28;9.98;;;4.38;;
76284;SDS011;71676;50.998;7.098;2024-03-17T01:47:58;11.40;;;4.50;;
76284;SDS011;71676;50.998;7.098;2024-03-17T01:50:28;9.07;;;4.28;;
76284;SDS011;71676;50.998;7.098;2024-03-17T01:52:58;10.38;;;3.88;;
76284;SDS011;71676;50.998;7.098;2024-03-17T01:55:27;9.82;;;5.45;;
76284;SDS011;71676;50.998;7.098;2024-03-17T01:57:54;9.63;;;3.97;;
76284;SDS011;71676;50.998;7.098;2024-03-17T02:00:20;10.98;;;4.93;;
76284;SDS011;71676;50.998;7.098;2024-03-17T02:02:48;9.05;;;4.60;;
76284;SDS011;71676;50.998;7.098;2024-03-17T02:05:15;10.75;;;4.65;;
76284;SDS011;71676;50.998;7.098;2024-03-17T02:07:42;10.55;;;4.75;;
76284;SDS011;71676;50.998;7.098;2024-03-17T02:10:08;10.73;;;4.90;;
76284;SDS011;71676;50.998;7.098;2024-03-17T02:12:35;10.55;;;5.18;;
76284;SDS011;71676;50.998;7.098;2024-03-17T02:17:30;9.93;;;4.65;;
76284;SDS011;71676;50.998;7.098;2024-03-17T02:19:56;10.60;;;4.70;;
76284;SDS011;71676;50.998;7.098;2024-03-17T02:22:24;10.43;;;5.03;;
76284;SDS011;71676;50.998;7.098;2024-03-17T02:24:49;10.10;;;4.82;;
76284;SDS011;71676;50.998;7.098;2024-03-17T02:27:16;10.18;;;5.03;;
76284;SDS011;71676;50.998;7.098;2024-03-17T02:29:42;11.63;;;4.95;;
76284;SDS011;71676;50.998;7.098;2024-03-17T02:32:09;10.23;;;5.25;;
76284;SDS011;71676;50.998;7.098;2024-03-17T02:34:34;12.18;;;5.53;;
76284;SDS011;71676;50.998;7.098;2024-03-17T02:37:01;9.20;;;5.00;;
76284;SDS011;71676;50.998;7.098;2024-03-17T02:39:30;13.70;;;6.07;;
76284;SDS011;71676;50.998;7.098;2024-03-17T02:41:59;10.35;;;4.70;;
76284;SDS011;71676;50.998;7.098;2024-03-17T02:44:25;11.48;;;5.45;;
76284;SDS011;71676;50.998;7.098;2024-03-17T02:46:52;12.07;;;5.30;;
76284;SDS011;71676;50.998;7.098;2024-03-17T02:49:18;10.52;;;4.85;;
76284;SDS011;71676;50.998;7.098;2024-03-17T02:51:45;11.00;;;4.80;;
76284;SDS011;71676;50.998;7.098;2024-03-17T02:54:12;11.23;;;4.97;;
76284;SDS011;71676;50.998;7.098;2024-03-17T02:56:40;11.13;;;5.05;;
76284;SDS011;71676;50.998;7.098;2024-03-17T02:59:07;10.05;;;5.18;;
76284;SDS011;71676;50.998;7.098;2024-03-17T03:01:33;9.65;;;5.28;;
76284;SDS011;71676;50.998;7.098;2024-03-17T03:04:00;9.55;;;5.22;;
76284;SDS011;71676;50.998;7.098;2024-03-17T03:06:27;13.23;;;5.95;;
76284;SDS011;71676;50.998;7.098;2024-03-17T03:08:53;11.38;;;5.25;;
76284;SDS011;71676;50.998;7.098;2024-03-17T03:11:20;13.02;;;5.60;;
76284;SDS011;71676;50.998;7.098;2024-03-17T03:13:48;9.65;;;4.93;;
76284;SDS011;71676;50.998;7.098;2024-03-17T03:16:15;10.25;;;5.20;;
76284;SDS011;71676;50.998;7.098;2024-03-17T03:18:43;11.60;;;5.57;;
76284;SDS011;71676;50.998;7.098;2024-03-17T03:21:11;9.93;;;4.57;;
76284;SDS011;71676;50.998;7.098;2024-03-17T03:23:38;12.10;;;5.53;;
76284;SDS011;71676;50.998;7.098;2024-03-17T03:26:05;10.10;;;5.25;;
76284;SDS011;71676;50.998;7.098;2024-03-17T03:28:34;12.85;;;5.65;;
76284;SDS011;71676;50.998;7.098;2024-03-17T03:31:02;9.50;;;4.88;;
76284;SDS011;71676;50.998;7.098;2024-03-17T03:33:29;9.57;;;4.95;;
76284;SDS011;71676;50.998;7.098;2024-03-17T03:35:57;14.95;;;6.07;;
76284;SDS011;71676;50.998;7.098;2024-03-17T03:38:24;10.75;;;5.38;;
76284;SDS011;71676;50.998;7.098;2024-03-17T03:40:50;10.30;;;4.82;;
76284;SDS011;71676;50.998;7.098;2024-03-17T03:43:18;10.57;;;5.47;;
76284;SDS011;71676;50.998;7.098;2024-03-17T03:45:45;10.00;;;5.32;;
76284;SDS011;71676;50.998;7.098;2024-03-17T03:48:13;10.88;;;5.15;;
76284;SDS011;71676;50.998;7.098;2024-03-17T03:50:39;9.57;;;4.53;;
76284;SDS011;71676;50.998;7.098;2024-03-17T03:53:06;9.65;;;5.40;;
76284;SDS011;71676;50.998;7.098;2024-03-17T03:55:33;10.45;;;5.22;;
76284;SDS011;71676;50.998;7.098;2024-03-17T03:58:00;12.38;;;5.82;;
76284;SDS011;71676;50.998;7.098;2024-03-17T04:00:28;9.93;;;5.20;;
76284;SDS011;71676;50.998;7.098;2024-03-17T04:02:57;12.98;;;6.28;;
76284;SDS011;71676;50.998;7.098;2024-03-17T04:05:26;10.93;;;5.28;;
76284;SDS011;71676;50.998;7.098;2024-03-17T04:07:53;10.30;;;5.00;;
76284;SDS011;71676;50.998;7.098;2024-03-17T04:10:20;12.05;;;5.63;;
76284;SDS011;71676;50.998;7.098;2024-03-17T04:12:46;11.13;;;6.20;;
76284;SDS011;71676;50.998;7.098;2024-03-17T04:15:13;10.57;;;5.45;;
76284;SDS011;71676;50.998;7.098;2024-03-17T04:17:40;10.00;;;5.28;;
76284;SDS011;71676;50.998;7.098;2024-03-17T04:20:07;10.77;;;5.50;;
76284;SDS011;71676;50.998;7.098;2024-03-17T04:22:37;10.35;;;5.15;;
76284;SDS011;71676;50.998;7.098;2024-03-17T04:25:04;10.00;;;5.40;;
76284;SDS011;71676;50.998;7.098;2024-03-17T04:27:31;12.40;;;5.43;;
76284;SDS011;71676;50.998;7.098;2024-03-17T04:29:58;11.52;;;5.80;;
76284;SDS011;71676;50.998;7.098;2024-03-17T04:32:25;11.82;;;5.40;;
76284;SDS011;71676;50.998;7.098;2024-03-17T04:34:53;10.52;;;5.57;;
76284;SDS011;71676;50.998;7.098;2024-03-17T04:37:19;10.13;;;5.30;;
76284;SDS011;71676;50.998;7.098;2024-03-17T04:39:48;12.45;;;5.55;;
76284;SDS011;71676;50.998;7.098;2024-03-17T04:42:16;12.93;;;5.10;;
76284;SDS011;71676;50.998;7.098;2024-03-17T04:44:44;10.80;;;5.60;;
76284;SDS011;71676;50.998;7.098;2024-03-17T04:47:12;9.30;;;4.93;;
76284;SDS011;71676;50.998;7.098;2024-03-17T04:49:39;9.63;;;4.82;;
76284;SDS011;71676;50.998;7.098;2024-03-17T04:52:07;12.98;;;5.55;;
76284;SDS011;71676;50.998;7.098;2024-03-17T04:54:35;9.52;;;5.13;;
76284;SDS011;71676;50.998;7.098;2024-03-17T04:57:03;9.48;;;5.10;;
76284;SDS011;71676;50.998;7.098;2024-03-17T04:59:30;9.88;;;4.97;;
76284;SDS011;71676;50.998;7.098;2024-03-17T05:02:00;10.40;;;4.82;;
76284;SDS011;71676;50.998;7.098;2024-03-17T05:04:27;10.15;;;4.50;;
76284;SDS011;71676;50.998;7.098;2024-03-17T05:06:53;10.18;;;5.13;;
76284;SDS011;71676;50.998;7.098;2024-03-17T05:09:20;10.55;;;4.70;;
76284;SDS011;71676;50.998;7.098;2024-03-17T05:11:47;10.38;;;4.78;;
76284;SDS011;71676;50.998;7.098;2024-03-17T05:14:15;10.15;;;4.97;;
76284;SDS011;71676;50.998;7.098;2024-03-17T05:16:41;9.63;;;5.10;;
76284;SDS011;71676;50.998;7.098;2024-03-17T05:19:08;12.00;;;5.03;;
76284;SDS011;71676;50.998;7.098;2024-03-17T05:21:34;9.55;;;4.75;;
76284;SDS011;71676;50.998;7.098;2024-03-17T05:24:01;9.13;;;4.68;;
76284;SDS011;71676;50.998;7.098;2024-03-17T05:26:28;8.90;;;5.05;;
76284;SDS011;71676;50.998;7.098;2024-03-17T05:28:56;9.15;;;4.97;;
76284;SDS011;71676;50.998;7.098;2024-03-17T05:31:24;10.23;;;4.65;;
76284;SDS011;71676;50.998;7.098;2024-03-17T05:33:51;11.68;;;4.97;;
76284;SDS011;71676;50.998;7.098;2024-03-17T05:36:18;8.75;;;4.75;;
76284;SDS011;71676;50.998;7.098;2024-03-17T05:38:46;8.95;;;5.32;;
76284;SDS011;71676;50.998;7.098;2024-03-17T05:41:13;10.63;;;5.60;;
76284;SDS011;71676;50.998;7.098;2024-03-17T05:43:40;9.93;;;5.00;;
76284;SDS011;71676;50.998;7.098;2024-03-17T05:46:08;11.65;;;5.18;;
76284;SDS011;71676;50.998;7.098;2024-03-17T05:48:38;10.35;;;5.20;;
76284;SDS011;71676;50.998;7.098;2024-03-17T05:51:06;11.90;;;5.30;;
76284;SDS011;71676;50.998;7.098;2024-03-17T06:07:09;10.80;;;5.18;;
76284;SDS011;71676;50.998;7.098;2024-03-17T06:09:36;14.80;;;5.75;;
76284;SDS011;71676;50.998;7.098;2024-03-17T06:12:02;10.90;;;4.70;;
76284;SDS011;71676;50.998;7.098;2024-03-17T06:14:29;9.50;;;4.80;;
76284;SDS011;71676;50.998;7.098;2024-03-17T06:16:56;10.90;;;5.25;;
76284;SDS011;71676;50.998;7.098;2024-03-17T06:19:24;13.23;;;5.63;;
76284;SDS011;71676;50.998;7.098;2024-03-17T06:21:50;10.90;;;5.47;;
76284;SDS011;71676;50.998;7.098;2024-03-17T06:24:17;13.07;;;5.25;;
76284;SDS011;71676;50.998;7.098;2024-03-17T06:26:44;11.07;;;5.50;;
76284;SDS011;71676;50.998;7.098;2024-03-17T06:29:11;11.00;;;5.38;;
76284;SDS011;71676;50.998;7.098;2024-03-17T06:31:38;9.88;;;5.15;;
76284;SDS011;71676;50.998;7.098;2024-03-17T06:34:04;10.52;;;5.43;;
76284;SDS011;71676;50.998;7.098;2024-03-17T06:36:32;9.98;;;5.20;;
76284;SDS011;71676;50.998;7.098;2024-03-17T06:38:59;12.80;;;4.72;;
76284;SDS011;71676;50.998;7.098;2024-03-17T06:41:25;9.18;;;4.95;;
76284;SDS011;71676;50.998;7.098;2024-03-17T06:43:52;9.82;;;5.15;;
76284;SDS011;71676;50.998;7.098;2024-03-17T06:46:19;10.50;;;4.88;;
76284;SDS011;71676;50.998;7.098;2024-03-17T06:48:45;10.50;;;4.50;;
76284;SDS011;71676;50.998;7.098;2024-03-17T06:51:12;10.65;;;4.47;;
76284;SDS011;71676;50.998;7.098;2024-03-17T06:53:40;12.13;;;4.88;;
76284;SDS011;71676;50.998;7.098;2024-03-17T06:56:07;9.48;;;5.15;;
76284;SDS011;71676;50.998;7.098;2024-03-17T06:58:34;9.68;;;4.50;;
76284;SDS011;71676;50.998;7.098;2024-03-17T07:01:01;10.70;;;5.22;;
76284;SDS011;71676;50.998;7.098;2024-03-17T07:03:28;8.77;;;4.05;;
76284;SDS011;71676;50.998;7.098;2024-03-17T07:05:56;9.35;;;4.68;;
76284;SDS011;71676;50.998;7.098;2024-03-17T07:08:24;12.80;;;5.32;;
76284;SDS011;71676;50.998;7.098;2024-03-17T07:10:56;9.00;;;4.38;;
76284;SDS011;71676;50.998;7.098;2024-03-17T07:13:23;9.90;;;4.70;;
76284;SDS011;71676;50.998;7.098;2024-03-17T07:15:50;10.60;;;4.43;;
76284;SDS011;71676;50.998;7.098;2024-03-17T07:18:16;8.25;;;4.45;;
76284;SDS011;71676;50.998;7.098;2024-03-17T07:20:43;8.65;;;3.85;;
76284;SDS011;71676;50.998;7.098;2024-03-17T07:23:12;10.85;;;5.82;;
76284;SDS011;71676;50.998;7.098;2024-03-17T07:25:39;8.98;;;4.50;;
76284;SDS011;71676;50.998;7.098;2024-03-17T07:28:07;8.90;;;4.15;;
76284;SDS011;71676;50.998;7.098;2024-03-17T07:30:34;9.05;;;4.38;;
76284;SDS011;71676;50.998;7.098;2024-03-17T07:33:01;8.80;;;3.97;;
76284;SDS011;71676;50.998;7.098;2024-03-17T07:35:27;7.32;;;3.38;;
76284;SDS011;71676;50.998;7.098;2024-03-17T07:37:54;8.80;;;3.70;;
76284;SDS011;71676;50.998;7.098;2024-03-17T07:40:21;7.35;;;3.80;;
76284;SDS011;71676;50.998;7.098;2024-03-17T07:42:47;9.93;;;3.83;;
76284;SDS011;71676;50.998;7.098;2024-03-17T07:45:15;8.98;;;3.95;;
76284;SDS011;71676;50.998;7.098;2024-03-17T07:47:43;8.90;;;3.47;;
76284;SDS011;71676;50.998;7.098;2024-03-17T07:50:10;8.40;;;4.00;;
76284;SDS011;71676;50.998;7.098;2024-03-17T07:52:37;7.43;;;3.45;;
76284;SDS011;71676;50.998;7.098;2024-03-17T07:55:04;8.57;;;3.35;;
76284;SDS011;71676;50.998;7.098;2024-03-17T07:57:34;8.25;;;3.30;;
76284;SDS011;71676;50.998;7.098;2024-03-17T08:00:01;10.23;;;3.85;;
76284;SDS011;71676;50.998;7.098;2024-03-17T08:02:29;9.75;;;3.85;;
76284;SDS011;71676;50.998;7.098;2024-03-17T08:04:55;8.82;;;3.35;;
76284;SDS011;71676;50.998;7.098;2024-03-17T08:07:22;6.75;;;3.30;;
76284;SDS011;71676;50.998;7.098;2024-03-17T08:09:49;6.80;;;3.53;;
76284;SDS011;71676;50.998;7.098;2024-03-17T08:12:16;7.18;;;3.90;;
76284;SDS011;71676;50.998;7.098;2024-03-17T08:14:42;6.45;;;3.13;;
76284;SDS011;71676;50.998;7.098;2024-03-17T08:17:09;5.63;;;2.55;;
76284;SDS011;71676;50.998;7.098;2024-03-17T08:19:37;7.90;;;2.92;;
76284;SDS011;71676;50.998;7.098;2024-03-17T08:22:06;7.18;;;3.20;;
76284;SDS011;71676;50.998;7.098;2024-03-17T08:24:33;6.47;;;3.10;;
76284;SDS011;71676;50.998;7.098;2024-03-17T08:26:59;6.70;;;2.90;;
76284;SDS011;71676;50.998;7.098;2024-03-17T08:29:26;8.82;;;3.60;;
76284;SDS011;71676;50.998;7.098;2024-03-17T08:31:53;6.05;;;2.95;;
76284;SDS011;71676;50.998;7.098;2024-03-17T08:34:19;7.05;;;3.25;;
76284;SDS011;71676;50.998;7.098;2024-03-17T08:36:47;5.55;;;2.65;;
76284;SDS011;71676;50.998;7.098;2024-03-17T08:39:14;6.60;;;3.10;;
76284;SDS011;71676;50.998;7.098;2024-03-17T08:41:40;6.97;;;3.00;;
76284;SDS011;71676;50.998;7.098;2024-03-17T08:44:09;10.15;;;3.42;;
76284;SDS011;71676;50.998;7.098;2024-03-17T08:46:36;7.47;;;3.00;;
76284;SDS011;71676;50.998;7.098;2024-03-17T08:49:02;5.82;;;2.50;;
76284;SDS011;71676;50.998;7.098;2024-03-17T08:51:29;6.57;;;2.67;;
76284;SDS011;71676;50.998;7.098;2024-03-17T08:53:58;5.63;;;2.65;;
76284;SDS011;71676;50.998;7.098;2024-03-17T08:56:25;7.63;;;2.63;;
76284;SDS011;71676;50.998;7.098;2024-03-17T08:58:51;6.78;;;2.92;;
76284;SDS011;71676;50.998;7.098;2024-03-17T09:01:18;6.10;;;2.83;;
76284;SDS011;71676;50.998;7.098;2024-03-17T09:03:45;6.57;;;3.03;;
76284;SDS011;71676;50.998;7.098;2024-03-17T09:06:14;5.90;;;2.60;;
76284;SDS011;71676;50.998;7.098;2024-03-17T09:08:44;7.97;;;2.80;;
76284;SDS011;71676;50.998;7.098;2024-03-17T09:11:13;6.72;;;3.05;;
76284;SDS011;71676;50.998;7.098;2024-03-17T09:13:40;6.40;;;2.90;;
76284;SDS011;71676;50.998;7.098;2024-03-17T09:16:07;8.60;;;3.00;;
76284;SDS011;71676;50.998;7.098;2024-03-17T09:18:36;8.07;;;2.83;;
76284;SDS011;71676;50.998;7.098;2024-03-17T09:21:03;8.32;;;3.15;;
76284;SDS011;71676;50.998;7.098;2024-03-17T09:23:32;6.82;;;3.35;;
76284;SDS011;71676;50.998;7.098;2024-03-17T09:26:00;6.80;;;3.25;;
76284;SDS011;71676;50.998;7.098;2024-03-17T09:28:31;6.95;;;2.97;;
76284;SDS011;71676;50.998;7.098;2024-03-17T09:30:58;7.43;;;3.45;;
76284;SDS011;71676;50.998;7.098;2024-03-17T09:33:26;5.82;;;2.42;;
76284;SDS011;71676;50.998;7.098;2024-03-17T09:35:53;8.65;;;4.03;;
76284;SDS011;71676;50.998;7.098;2024-03-17T09:38:20;7.70;;;3.50;;
76284;SDS011;71676;50.998;7.098;2024-03-17T09:40:47;7.97;;;3.55;;
76284;SDS011;71676;50.998;7.098;2024-03-17T09:43:17;7.60;;;3.08;;
76284;SDS011;71676;50.998;7.098;2024-03-17T09:45:46;6.13;;;2.75;;
76284;SDS011;71676;50.998;7.098;2024-03-17T09:48:13;6.47;;;2.53;;
76284;SDS011;71676;50.998;7.098;2024-03-17T09:50:42;6.15;;;2.58;;
76284;SDS011;71676;50.998;7.098;2024-03-17T09:53:16;5.43;;;2.60;;
76284;SDS011;71676;50.998;7.098;2024-03-17T09:55:44;5.85;;;2.47;;
76284;SDS011;71676;50.998;7.098;2024-03-17T09:58:13;6.53;;;2.97;;
76284;SDS011;71676;50.998;7.098;2024-03-17T10:00:42;7.07;;;3.20;;
76284;SDS011;71676;50.998;7.098;2024-03-17T10:03:10;7.55;;;2.92;;
76284;SDS011;71676;50.998;7.098;2024-03-17T10:05:37;6.97;;;2.53;;
76284;SDS011;71676;50.998;7.098;2024-03-17T10:08:05;5.65;;;2.60;;
76284;SDS011;71676;50.998;7.098;2024-03-17T10:10:33;7.32;;;2.90;;
76284;SDS011;71676;50.998;7.098;2024-03-17T10:13:00;7.05;;;2.40;;
76284;SDS011;71676;50.998;7.098;2024-03-17T10:15:27;6.38;;;2.80;;
76284;SDS011;71676;50.998;7.098;2024-03-17T10:17:54;8.50;;;2.72;;
76284;SDS011;71676;50.998;7.098;2024-03-17T10:20:23;10.05;;;3.78;;
76284;SDS011;71676;50.998;7.098;2024-03-17T10:23:03;7.50;;;2.90;;
76284;SDS011;71676;50.998;7.098;2024-03-17T10:25:32;8.35;;;3.20;;
76284;SDS011;71676;50.998;7.098;2024-03-17T10:28:00;6.57;;;2.72;;
76284;SDS011;71676;50.998;7.098;2024-03-17T10:30:27;5.25;;;2.60;;
76284;SDS011;71676;50.998;7.098;2024-03-17T10:32:56;7.18;;;3.00;;
76284;SDS011;71676;50.998;7.098;2024-03-17T10:35:28;5.50;;;2.60;;
76284;SDS011;71676;50.998;7.098;2024-03-17T10:37:59;5.97;;;2.50;;
76284;SDS011;71676;50.998;7.098;2024-03-17T10:40:27;7.32;;;2.83;;
76284;SDS011;71676;50.998;7.098;2024-03-17T10:42:56;7.30;;;2.90;;
76284;SDS011;71676;50.998;7.098;2024-03-17T10:45:24;6.10;;;2.72;;
76284;SDS011;71676;50.998;7.098;2024-03-17T10:47:52;6.00;;;2.80;;
76284;SDS011;71676;50.998;7.098;2024-03-17T10:50:19;7.43;;;2.65;;
76284;SDS011;71676;50.998;7.098;2024-03-17T10:52:48;9.90;;;3.70;;
76284;SDS011;71676;50.998;7.098;2024-03-17T10:55:20;7.28;;;3.40;;
76284;SDS011;71676;50.998;7.098;2024-03-17T10:57:49;6.07;;;2.90;;
76284;SDS011;71676;50.998;7.098;2024-03-17T11:00:16;8.40;;;3.00;;
76284;SDS011;71676;50.998;7.098;2024-03-17T11:02:47;5.88;;;2.60;;
76284;SDS011;71676;50.998;7.098;2024-03-17T11:05:15;7.00;;;2.60;;
76284;SDS011;71676;50.998;7.098;2024-03-17T11:07:45;6.50;;;2.97;;
76284;SDS011;71676;50.998;7.098;2024-03-17T11:10:18;7.60;;;2.85;;
76284;SDS011;71676;50.998;7.098;2024-03-17T11:12:46;7.43;;;3.05;;
76284;SDS011;71676;50.998;7.098;2024-03-17T11:20:59;7.03;;;3.30;;
76284;SDS011;71676;50.998;7.098;2024-03-17T11:23:32;5.90;;;2.72;;
76284;SDS011;71676;50.998;7.098;2024-03-17T11:26:00;8.18;;;3.10;;
76284;SDS011;71676;50.998;7.098;2024-03-17T11:28:44;4.22;;;2.15;;
76284;SDS011;71676;50.998;7.098;2024-03-17T11:34:08;7.80;;;2.90;;
76284;SDS011;71676;50.998;7.098;2024-03-17T11:36:52;7.68;;;2.90;;
76284;SDS011;71676;50.998;7.098;2024-03-17T11:39:19;5.80;;;2.83;;
76284;SDS011;71676;50.998;7.098;2024-03-17T11:41:50;6.05;;;2.92;;
76284;SDS011;71676;50.998;7.098;2024-03-17T11:44:23;6.80;;;2.90;;
76284;SDS011;71676;50.998;7.098;2024-03-17T11:46:52;5.57;;;2.30;;
76284;SDS011;71676;50.998;7.098;2024-03-17T11:49:21;5.13;;;2.40;;
76284;SDS011;71676;50.998;7.098;2024-03-17T11:51:47;6.25;;;3.10;;
76284;SDS011;71676;50.998;7.098;2024-03-17T11:54:15;6.60;;;2.90;;
76284;SDS011;71676;50.998;7.098;2024-03-17T11:56:44;6.07;;;2.72;;
76284;SDS011;71676;50.998;7.098;2024-03-17T11:59:13;5.20;;;2.90;;
76284;SDS011;71676;50.998;7.098;2024-03-17T12:01:43;5.97;;;2.42;;
76284;SDS011;71676;50.998;7.098;2024-03-17T12:04:09;5.43;;;2.60;;
76284;SDS011;71676;50.998;7.098;2024-03-17T12:06:37;5.93;;;2.88;;
76284;SDS011;71676;50.998;7.098;2024-03-17T12:09:10;6.05;;;2.40;;
76284;SDS011;71676;50.998;7.098;2024-03-17T12:11:46;5.97;;;2.90;;
76284;SDS011;71676;50.998;7.098;2024-03-17T12:14:16;7.65;;;3.15;;
76284;SDS011;71676;50.998;7.098;2024-03-17T12:16:47;8.45;;;3.53;;
76284;SDS011;71676;50.998;7.098;2024-03-17T12:19:15;8.73;;;3.78;;
76284;SDS011;71676;50.998;7.098;2024-03-17T12:21:42;7.97;;;3.83;;
76284;SDS011;71676;50.998;7.098;2024-03-17T12:24:12;9.45;;;4.22;;
76284;SDS011;71676;50.998;7.098;2024-03-17T12:26:40;10.15;;;3.95;;
76284;SDS011;71676;50.998;7.098;2024-03-17T12:29:22;10.23;;;5.10;;
76284;SDS011;71676;50.998;7.098;2024-03-17T12:31:50;7.63;;;3.75;;
76284;SDS011;71676;50.998;7.098;2024-03-17T12:34:17;8.10;;;3.50;;
76284;SDS011;71676;50.998;7.098;2024-03-17T12:36:44;8.43;;;3.13;;
76284;SDS011;71676;50.998;7.098;2024-03-17T12:39:11;10.07;;;3.28;;
76284;SDS011;71676;50.998;7.098;2024-03-17T12:41:42;7.28;;;3.35;;
76284;SDS011;71676;50.998;7.098;2024-03-17T12:44:19;7.63;;;3.10;;
76284;SDS011;71676;50.998;7.098;2024-03-17T12:46:47;6.38;;;3.30;;
76284;SDS011;71676;50.998;7.098;2024-03-17T12:49:14;7.07;;;2.80;;
76284;SDS011;71676;50.998;7.098;2024-03-17T12:51:40;7.50;;;3.20;;
76284;SDS011;71676;50.998;7.098;2024-03-17T12:54:13;8.45;;;3.47;;
76284;SDS011;71676;50.998;7.098;2024-03-17T12:56:39;7.30;;;3.22;;
76284;SDS011;71676;50.998;7.098;2024-03-17T12:59:24;7.32;;;2.80;;
76284;SDS011;71676;50.998;7.098;2024-03-17T13:02:09;8.27;;;3.50;;
76284;SDS011;71676;50.998;7.098;2024-03-17T13:04:38;6.00;;;3.13;;
76284;SDS011;71676;50.998;7.098;2024-03-17T13:07:10;4.65;;;2.63;;
76284;SDS011;71676;50.998;7.098;2024-03-17T13:09:37;7.05;;;2.80;;
76284;SDS011;71676;50.998;7.098;2024-03-17T13:12:12;5.05;;;2.63;;
76284;SDS011;71676;50.998;7.098;2024-03-17T13:14:42;6.28;;;2.60;;
76284;SDS011;71676;50.998;7.098;2024-03-17T13:17:10;5.65;;;2.72;;
76284;SDS011;71676;50.998;7.098;2024-03-17T13:19:45;6.38;;;3.00;;
76284;SDS011;71676;50.998;7.098;2024-03-17T13:22:12;6.35;;;2.80;;
76284;SDS011;71676;50.998;7.098;2024-03-17T13:24:38;6.78;;;3.40;;
76284;SDS011;71676;50.998;7.098;2024-03-17T13:27:05;7.90;;;3.80;;
76284;SDS011;71676;50.998;7.098;2024-03-17T13:29:33;7.40;;;2.95;;
76284;SDS011;71676;50.998;7.098;2024-03-17T13:32:02;6.82;;;3.25;;
76284;SDS011;71676;50.998;7.098;2024-03-17T13:34:29;8.60;;;3.10;;
76284;SDS011;71676;50.998;7.098;2024-03-17T13:36:56;7.47;;;3.10;;
76284;SDS011;71676;50.998;7.098;2024-03-17T13:39:28;6.97;;;2.80;;
76284;SDS011;71676;50.998;7.098;2024-03-17T13:41:56;6.60;;;2.75;;
76284;SDS011;71676;50.998;7.098;2024-03-17T13:44:27;6.85;;;3.08;;
76284;SDS011;71676;50.998;7.098;2024-03-17T13:46:54;7.00;;;2.80;;
76284;SDS011;71676;50.998;7.098;2024-03-17T13:49:22;5.25;;;2.40;;
76284;SDS011;71676;50.998;7.098;2024-03-17T13:51:49;5.68;;;2.83;;
76284;SDS011;71676;50.998;7.098;2024-03-17T13:54:15;5.97;;;2.35;;
76284;SDS011;71676;50.998;7.098;2024-03-17T13:56:42;5.75;;;2.33;;
76284;SDS011;71676;50.998;7.098;2024-03-17T13:59:10;5.40;;;2.30;;
76284;SDS011;71676;50.998;7.098;2024-03-17T14:01:36;5.40;;;2.80;;
76284;SDS011;71676;50.998;7.098;2024-03-17T14:04:03;5.80;;;2.42;;
76284;SDS011;71676;50.998;7.098;2024-03-17T14:06:31;5.25;;;2.25;;
76284;SDS011;71676;50.998;7.098;2024-03-17T14:08:58;6.78;;;2.88;;
76284;SDS011;71676;50.998;7.098;2024-03-17T14:11:25;4.95;;;2.50;;
76284;SDS011;71676;50.998;7.098;2024-03-17T14:13:51;6.63;;;2.60;;
76284;SDS011;71676;50.998;7.098;2024-03-17T14:16:18;7.15;;;2.80;;
76284;SDS011;71676;50.998;7.098;2024-03-17T14:18:45;6.22;;;2.72;;
76284;SDS011;71676;50.998;7.098;2024-03-17T14:21:12;6.00;;;2.40;;
76284;SDS011;71676;50.998;7.098;2024-03-17T14:23:41;6.25;;;2.33;;
76284;SDS011;71676;50.998;7.098;2024-03-17T14:26:10;6.50;;;2.80;;
76284;SDS011;71676;50.998;7.098;2024-03-17T14:28:37;6.60;;;2.80;;
76284;SDS011;71676;50.998;7.098;2024-03-17T14:31:04;4.57;;;2.35;;
76284;SDS011;71676;50.998;7.098;2024-03-17T14:33:31;7.47;;;2.70;;
76284;SDS011;71676;50.998;7.098;2024-03-17T14:35:58;7.05;;;3.00;;
76284;SDS011;71676;50.998;7.098;2024-03-17T14:38:24;6.60;;;2.60;;
76284;SDS011;71676;50.998;7.098;2024-03-17T14:40:52;7.13;;;2.55;;
76284;SDS011;71676;50.998;7.098;2024-03-17T14:43:19;4.65;;;2.03;;
76284;SDS011;71676;50.998;7.098;2024-03-17T14:45:46;6.75;;;2.90;;
76284;SDS011;71676;50.998;7.098;2024-03-17T14:48:13;6.57;;;2.83;;
76284;SDS011;71676;50.998;7.098;2024-03-17T14:50:39;5.47;;;3.13;;
76284;SDS011;71676;50.998;7.098;2024-03-17T14:53:06;5.80;;;2.53;;
76284;SDS011;71676;50.998;7.098;2024-03-17T14:55:32;7.55;;;3.10;;
76284;SDS011;71676;50.998;7.098;2024-03-17T14:58:00;6.68;;;2.70;;
76284;SDS011;71676;50.998;7.098;2024-03-17T15:00:27;5.50;;;2.90;;
76284;SDS011;71676;50.998;7.098;2024-03-17T15:02:56;7.63;;;2.67;;
76284;SDS011;71676;50.998;7.098;2024-03-17T15:05:23;5.82;;;2.60;;
76284;SDS011;71676;50.998;7.098;2024-03-17T15:07:51;5.40;;;2.47;;
76284;SDS011;71676;50.998;7.098;2024-03-17T15:10:18;7.53;;;2.50;;
76284;SDS011;71676;50.998;7.098;2024-03-17T15:12:46;6.47;;;2.33;;